Airfield :







YOU CAN JOIN US ON...

 
LOGIN :

Register | Disclaimer

   EN    FR    IT 

 









Legend :    VFR   Marginal VFR   IFR   Intensive IFR   Very Intensive IFR
Visi :
Ceiling :
>= 8 km
>= 3000ft
5 to 8 km
1000 to 3000 ft
1500m to 5 km
500 to 1000 ft
800 to 1500m
200 to 500 ft
< 800m
< 200 ft
Symbols :   Thunderstorms  Fog  Heavy snow  Heavy precipitations  Wind > 20 kt







- Airport Elevation : 20 ft
- IATA code : BOS


KBOS - General Edward Lawrence Logan International

CURRENT METAR :
  • 260654Z 19011KT 10SM SCT040 BKN070 OVC110 13/11 A2993 RMK AO2 RAE51 TSE11 SLP135 TS MOV E P0008 T01330106

EXPIRED METARs :
  • 260612Z 20013KT 10SM -RA BKN040 OVC050 13/09 A2996 RMK AO2 LTG DSNT SE TSE11 TS MOV E P0005 T01280094
  • 260554Z 21018G24KT 3SM +TSRA FEW021CB BKN050 OVC070 12/09 A2998 RMK AO2 LTG DSNT SE AND S SLP150 OCNL LTGICCG SE-S TS SE-S MOV E P0015 60018 T01220094 10194 20117 58023
  • 260454Z 22016G27KT 7SM TSRA SCT048CB OVC100 13/07 A3000 RMK A02 PK WND 21029/0421 LTG DSNT S AND SW RAB33 TSB45 SLP157 OCNL LTGICCG S-SW TS S-SW MOV E P0003 T01280072 402170111

TAF KBOS
Valid from the 26 at 06:00 until the 27 at 12:00 UTC


260538Z 2606/2712 21013G24KT 6SM SHRA VCTS OVC050CB
FM260630 21013G23KT P6SM VCSH OVC060
FM261000 22012G22KT P6SM BKN070
FM261300 24011KT P6SM SCT250
FM261600 25012G19KT P6SM FEW250
FM261900 28014G27KT P6SM SCT060
FM262300 29012G19KT P6SM SCT250
FM270300 32006KT P6SM SCT250
KZBW FIR / North America



MET'MAP, your aeronautical weather chart ! - Copyright ORBIFLY December 2007 - Disclaimer

ORBIFLY MET'MAP TEAM :

Programming & Development : Alexandra Zaïnal
Concept & Development : Baudouin d'Aumeries
Co-Development & Prog : Marc-Olivier Méhu
Technical & hardware support : Manuel Goepfert

Contact : metmap@orbifly.com




SOURCES & CREDITS :

   NOAA